sensor_id;sensor_type;location;lat;lon;timestamp;temperature;humidity
22145;DHT22;11238;48.730;11.566;2024-02-26T00:02:24;3.40;99.90
22145;DHT22;11238;48.730;11.566;2024-02-26T00:04:50;3.50;99.90
22145;DHT22;11238;48.730;11.566;2024-02-26T00:07:16;3.40;99.90
22145;DHT22;11238;48.730;11.566;2024-02-26T00:09:42;3.40;99.90
22145;DHT22;11238;48.730;11.566;2024-02-26T00:12:08;3.30;99.90
22145;DHT22;11238;48.730;11.566;2024-02-26T00:14:34;3.40;99.90
22145;DHT22;11238;48.730;11.566;2024-02-26T00:17:00;3.40;99.90
22145;DHT22;11238;48.730;11.566;2024-02-26T00:19:26;3.30;99.90
22145;DHT22;11238;48.730;11.566;2024-02-26T00:21:52;3.30;99.90
22145;DHT22;11238;48.730;11.566;2024-02-26T00:24:19;3.30;99.90
22145;DHT22;11238;48.730;11.566;2024-02-26T00:26:44;3.30;99.90
22145;DHT22;11238;48.730;11.566;2024-02-26T00:29:10;3.20;99.90
22145;DHT22;11238;48.730;11.566;2024-02-26T00:31:37;3.20;99.90
22145;DHT22;11238;48.730;11.566;2024-02-26T00:34:03;3.20;99.90
22145;DHT22;11238;48.730;11.566;2024-02-26T00:36:29;3.20;99.90
22145;DHT22;11238;48.730;11.566;2024-02-26T00:38:55;3.20;99.90
22145;DHT22;11238;48.730;11.566;2024-02-26T00:41:21;3.10;99.90
22145;DHT22;11238;48.730;11.566;2024-02-26T00:43:47;3.10;99.90
22145;DHT22;11238;48.730;11.566;2024-02-26T00:46:13;3.00;99.90
22145;DHT22;11238;48.730;11.566;2024-02-26T00:48:39;3.10;99.90
22145;DHT22;11238;48.730;11.566;2024-02-26T00:51:05;3.00;99.90
22145;DHT22;11238;48.730;11.566;2024-02-26T00:53:32;2.90;99.90
22145;DHT22;11238;48.730;11.566;2024-02-26T00:55:58;2.90;99.90
22145;DHT22;11238;48.730;11.566;2024-02-26T00:58:27;2.90;99.90
22145;DHT22;11238;48.730;11.566;2024-02-26T01:00:53;2.90;99.90
22145;DHT22;11238;48.730;11.566;2024-02-26T01:03:19;2.90;99.90
22145;DHT22;11238;48.730;11.566;2024-02-26T01:05:45;2.90;99.90
22145;DHT22;11238;48.730;11.566;2024-02-26T01:08:11;2.90;99.90
22145;DHT22;11238;48.730;11.566;2024-02-26T01:10:37;2.90;99.90
22145;DHT22;11238;48.730;11.566;2024-02-26T01:13:02;2.90;99.90
22145;DHT22;11238;48.730;11.566;2024-02-26T01:15:28;3.00;99.90
22145;DHT22;11238;48.730;11.566;2024-02-26T01:17:54;2.90;99.90
22145;DHT22;11238;48.730;11.566;2024-02-26T01:20:20;2.90;99.90
22145;DHT22;11238;48.730;11.566;2024-02-26T01:22:46;2.90;99.90
22145;DHT22;11238;48.730;11.566;2024-02-26T01:25:12;2.90;99.90
22145;DHT22;11238;48.730;11.566;2024-02-26T01:27:38;2.90;99.90
22145;DHT22;11238;48.730;11.566;2024-02-26T01:30:07;2.80;99.90
22145;DHT22;11238;48.730;11.566;2024-02-26T01:32:33;2.90;99.90
22145;DHT22;11238;48.730;11.566;2024-02-26T01:34:59;2.90;99.90
22145;DHT22;11238;48.730;11.566;2024-02-26T01:37:25;2.80;99.90
22145;DHT22;11238;48.730;11.566;2024-02-26T01:39:51;2.80;99.90
22145;DHT22;11238;48.730;11.566;2024-02-26T01:42:17;2.80;99.90
22145;DHT22;11238;48.730;11.566;2024-02-26T01:44:43;2.80;99.90
22145;DHT22;11238;48.730;11.566;2024-02-26T01:47:11;2.80;99.90
22145;DHT22;11238;48.730;11.566;2024-02-26T01:49:37;2.80;99.90
22145;DHT22;11238;48.730;11.566;2024-02-26T01:52:06;2.90;99.90
22145;DHT22;11238;48.730;11.566;2024-02-26T01:54:35;2.80;99.90
22145;DHT22;11238;48.730;11.566;2024-02-26T01:57:06;2.80;99.90
22145;DHT22;11238;48.730;11.566;2024-02-26T01:59:33;2.90;99.90
22145;DHT22;11238;48.730;11.566;2024-02-26T02:02:01;2.90;99.90
22145;DHT22;11238;48.730;11.566;2024-02-26T02:04:29;2.90;99.90
22145;DHT22;11238;48.730;11.566;2024-02-26T02:06:55;2.90;99.90
22145;DHT22;11238;48.730;11.566;2024-02-26T02:09:23;2.90;99.90
22145;DHT22;11238;48.730;11.566;2024-02-26T02:11:49;2.80;99.90
22145;DHT22;11238;48.730;11.566;2024-02-26T02:14:15;2.80;99.90
22145;DHT22;11238;48.730;11.566;2024-02-26T02:16:41;2.80;99.90
22145;DHT22;11238;48.730;11.566;2024-02-26T02:19:07;2.80;99.90
22145;DHT22;11238;48.730;11.566;2024-02-26T02:21:33;2.80;99.90
22145;DHT22;11238;48.730;11.566;2024-02-26T02:23:58;2.70;99.90
22145;DHT22;11238;48.730;11.566;2024-02-26T02:26:24;2.70;99.90
22145;DHT22;11238;48.730;11.566;2024-02-26T02:28:50;2.70;99.90
22145;DHT22;11238;48.730;11.566;2024-02-26T02:31:16;2.70;99.90
22145;DHT22;11238;48.730;11.566;2024-02-26T02:33:42;2.70;99.90
22145;DHT22;11238;48.730;11.566;2024-02-26T02:36:09;2.80;99.90
22145;DHT22;11238;48.730;11.566;2024-02-26T02:38:38;2.80;99.90
22145;DHT22;11238;48.730;11.566;2024-02-26T02:41:13;2.80;99.90
22145;DHT22;11238;48.730;11.566;2024-02-26T02:43:40;2.70;99.90
22145;DHT22;11238;48.730;11.566;2024-02-26T02:46:06;2.70;99.90
22145;DHT22;11238;48.730;11.566;2024-02-26T02:48:33;2.70;99.90
22145;DHT22;11238;48.730;11.566;2024-02-26T02:50:58;2.70;99.90
22145;DHT22;11238;48.730;11.566;2024-02-26T02:53:24;2.60;99.90
22145;DHT22;11238;48.730;11.566;2024-02-26T02:55:50;2.60;99.90
22145;DHT22;11238;48.730;11.566;2024-02-26T02:58:16;2.60;99.90
22145;DHT22;11238;48.730;11.566;2024-02-26T03:00:41;2.60;99.90
22145;DHT22;11238;48.730;11.566;2024-02-26T03:03:07;2.50;99.90
22145;DHT22;11238;48.730;11.566;2024-02-26T03:05:33;2.50;99.90
22145;DHT22;11238;48.730;11.566;2024-02-26T03:07:59;2.50;99.90
22145;DHT22;11238;48.730;11.566;2024-02-26T03:10:25;2.60;99.90
22145;DHT22;11238;48.730;11.566;2024-02-26T03:12:50;2.60;99.90
22145;DHT22;11238;48.730;11.566;2024-02-26T03:15:16;2.60;99.90
22145;DHT22;11238;48.730;11.566;2024-02-26T03:17:42;2.60;99.90
22145;DHT22;11238;48.730;11.566;2024-02-26T03:20:09;2.60;99.90
22145;DHT22;11238;48.730;11.566;2024-02-26T03:22:35;2.60;99.90
22145;DHT22;11238;48.730;11.566;2024-02-26T03:25:01;2.60;99.90
22145;DHT22;11238;48.730;11.566;2024-02-26T03:27:27;2.60;99.90
22145;DHT22;11238;48.730;11.566;2024-02-26T03:29:53;2.60;99.90
22145;DHT22;11238;48.730;11.566;2024-02-26T03:32:19;2.60;99.90
22145;DHT22;11238;48.730;11.566;2024-02-26T03:34:44;2.60;99.90
22145;DHT22;11238;48.730;11.566;2024-02-26T03:37:10;2.60;99.90
22145;DHT22;11238;48.730;11.566;2024-02-26T03:39:37;2.60;99.90
22145;DHT22;11238;48.730;11.566;2024-02-26T03:42:03;2.60;99.90
22145;DHT22;11238;48.730;11.566;2024-02-26T03:44:29;2.60;99.90
22145;DHT22;11238;48.730;11.566;2024-02-26T03:46:55;2.60;99.90
22145;DHT22;11238;48.730;11.566;2024-02-26T03:49:21;2.60;99.90
22145;DHT22;11238;48.730;11.566;2024-02-26T03:51:48;2.70;99.90
22145;DHT22;11238;48.730;11.566;2024-02-26T03:54:14;2.60;99.90
22145;DHT22;11238;48.730;11.566;2024-02-26T03:56:39;2.60;99.90
22145;DHT22;11238;48.730;11.566;2024-02-26T03:59:05;2.70;99.90
22145;DHT22;11238;48.730;11.566;2024-02-26T04:01:31;2.70;99.90
22145;DHT22;11238;48.730;11.566;2024-02-26T04:03:57;2.70;99.90
22145;DHT22;11238;48.730;11.566;2024-02-26T04:06:23;2.70;99.90
22145;DHT22;11238;48.730;11.566;2024-02-26T04:08:49;2.70;99.90
22145;DHT22;11238;48.730;11.566;2024-02-26T04:11:15;2.70;99.90
22145;DHT22;11238;48.730;11.566;2024-02-26T04:13:44;2.70;99.90
22145;DHT22;11238;48.730;11.566;2024-02-26T04:16:17;2.70;99.90
22145;DHT22;11238;48.730;11.566;2024-02-26T04:18:43;2.70;99.90
22145;DHT22;11238;48.730;11.566;2024-02-26T04:21:09;2.80;99.90
22145;DHT22;11238;48.730;11.566;2024-02-26T04:23:35;2.70;99.90
22145;DHT22;11238;48.730;11.566;2024-02-26T04:26:02;2.80;99.90
22145;DHT22;11238;48.730;11.566;2024-02-26T04:28:27;2.80;99.90
22145;DHT22;11238;48.730;11.566;2024-02-26T04:30:55;2.80;99.90
22145;DHT22;11238;48.730;11.566;2024-02-26T04:33:21;2.80;99.90
22145;DHT22;11238;48.730;11.566;2024-02-26T04:35:47;2.80;99.90
22145;DHT22;11238;48.730;11.566;2024-02-26T04:38:13;2.80;99.90
22145;DHT22;11238;48.730;11.566;2024-02-26T04:40:39;2.90;99.90
22145;DHT22;11238;48.730;11.566;2024-02-26T04:43:05;2.90;99.90
22145;DHT22;11238;48.730;11.566;2024-02-26T04:45:31;2.90;99.90
22145;DHT22;11238;48.730;11.566;2024-02-26T04:47:56;2.90;99.90
22145;DHT22;11238;48.730;11.566;2024-02-26T04:50:22;2.90;99.90
22145;DHT22;11238;48.730;11.566;2024-02-26T04:52:47;2.90;99.90
22145;DHT22;11238;48.730;11.566;2024-02-26T04:55:13;2.90;99.90
22145;DHT22;11238;48.730;11.566;2024-02-26T04:57:39;2.90;99.90
22145;DHT22;11238;48.730;11.566;2024-02-26T05:00:05;2.90;99.90
22145;DHT22;11238;48.730;11.566;2024-02-26T05:02:31;2.90;99.90
22145;DHT22;11238;48.730;11.566;2024-02-26T05:04:59;2.90;99.90
22145;DHT22;11238;48.730;11.566;2024-02-26T05:07:24;2.90;99.90
22145;DHT22;11238;48.730;11.566;2024-02-26T05:09:50;2.80;99.90
22145;DHT22;11238;48.730;11.566;2024-02-26T05:12:16;2.80;99.90
22145;DHT22;11238;48.730;11.566;2024-02-26T05:14:42;2.90;99.90
22145;DHT22;11238;48.730;11.566;2024-02-26T05:17:08;2.90;99.90
22145;DHT22;11238;48.730;11.566;2024-02-26T05:19:34;2.90;99.90
22145;DHT22;11238;48.730;11.566;2024-02-26T05:22:00;2.90;99.90
22145;DHT22;11238;48.730;11.566;2024-02-26T05:24:26;2.90;99.90
22145;DHT22;11238;48.730;11.566;2024-02-26T05:26:51;2.90;99.90
22145;DHT22;11238;48.730;11.566;2024-02-26T05:29:17;2.90;99.90
22145;DHT22;11238;48.730;11.566;2024-02-26T05:31:43;2.90;99.90
22145;DHT22;11238;48.730;11.566;2024-02-26T05:34:09;2.90;99.90
22145;DHT22;11238;48.730;11.566;2024-02-26T05:36:35;2.90;99.90
22145;DHT22;11238;48.730;11.566;2024-02-26T05:39:02;2.90;99.90
22145;DHT22;11238;48.730;11.566;2024-02-26T05:41:29;2.90;99.90
22145;DHT22;11238;48.730;11.566;2024-02-26T05:43:55;2.90;99.90
22145;DHT22;11238;48.730;11.566;2024-02-26T05:46:22;3.00;99.90
22145;DHT22;11238;48.730;11.566;2024-02-26T05:48:50;3.00;99.90
22145;DHT22;11238;48.730;11.566;2024-02-26T05:51:16;3.00;99.90
22145;DHT22;11238;48.730;11.566;2024-02-26T05:53:42;3.00;99.90
22145;DHT22;11238;48.730;11.566;2024-02-26T05:56:08;2.90;99.90
22145;DHT22;11238;48.730;11.566;2024-02-26T05:58:34;2.90;99.90
22145;DHT22;11238;48.730;11.566;2024-02-26T06:01:00;2.90;99.90
22145;DHT22;11238;48.730;11.566;2024-02-26T06:03:26;2.90;99.90
22145;DHT22;11238;48.730;11.566;2024-02-26T06:05:52;2.90;99.90
22145;DHT22;11238;48.730;11.566;2024-02-26T06:08:18;2.90;99.90
22145;DHT22;11238;48.730;11.566;2024-02-26T06:10:44;2.90;99.90
22145;DHT22;11238;48.730;11.566;2024-02-26T06:13:10;3.00;99.90
22145;DHT22;11238;48.730;11.566;2024-02-26T06:15:36;3.00;99.90
22145;DHT22;11238;48.730;11.566;2024-02-26T06:18:02;3.00;99.90
22145;DHT22;11238;48.730;11.566;2024-02-26T06:20:28;3.00;99.90
22145;DHT22;11238;48.730;11.566;2024-02-26T06:22:54;3.10;99.90
22145;DHT22;11238;48.730;11.566;2024-02-26T06:25:20;3.10;99.90
22145;DHT22;11238;48.730;11.566;2024-02-26T06:27:46;3.10;99.90
22145;DHT22;11238;48.730;11.566;2024-02-26T06:30:12;3.10;99.90
22145;DHT22;11238;48.730;11.566;2024-02-26T06:32:38;3.10;99.90
22145;DHT22;11238;48.730;11.566;2024-02-26T06:35:04;3.10;99.90
22145;DHT22;11238;48.730;11.566;2024-02-26T06:37:35;3.10;99.90
22145;DHT22;11238;48.730;11.566;2024-02-26T06:40:01;3.10;99.90
22145;DHT22;11238;48.730;11.566;2024-02-26T06:42:32;3.10;99.90
22145;DHT22;11238;48.730;11.566;2024-02-26T06:44:58;3.10;99.90
22145;DHT22;11238;48.730;11.566;2024-02-26T06:47:24;3.20;99.90
22145;DHT22;11238;48.730;11.566;2024-02-26T06:49:52;3.10;99.90
22145;DHT22;11238;48.730;11.566;2024-02-26T06:52:17;3.10;99.90
22145;DHT22;11238;48.730;11.566;2024-02-26T06:54:43;3.10;99.90
22145;DHT22;11238;48.730;11.566;2024-02-26T06:57:09;3.10;99.90
22145;DHT22;11238;48.730;11.566;2024-02-26T06:59:34;3.20;99.90
22145;DHT22;11238;48.730;11.566;2024-02-26T07:02:00;3.20;99.90
22145;DHT22;11238;48.730;11.566;2024-02-26T07:04:27;3.20;99.90
22145;DHT22;11238;48.730;11.566;2024-02-26T07:06:53;3.30;99.90
22145;DHT22;11238;48.730;11.566;2024-02-26T07:09:19;3.30;99.90
22145;DHT22;11238;48.730;11.566;2024-02-26T07:11:44;3.50;99.90
22145;DHT22;11238;48.730;11.566;2024-02-26T07:14:12;3.50;99.90
22145;DHT22;11238;48.730;11.566;2024-02-26T07:16:37;3.50;99.90
22145;DHT22;11238;48.730;11.566;2024-02-26T07:19:04;3.50;99.90
22145;DHT22;11238;48.730;11.566;2024-02-26T07:21:30;3.50;99.90
22145;DHT22;11238;48.730;11.566;2024-02-26T07:23:56;3.50;99.90
22145;DHT22;11238;48.730;11.566;2024-02-26T07:26:21;3.50;99.90
22145;DHT22;11238;48.730;11.566;2024-02-26T07:28:49;3.60;99.90
22145;DHT22;11238;48.730;11.566;2024-02-26T07:31:17;3.60;99.90
22145;DHT22;11238;48.730;11.566;2024-02-26T07:33:43;3.70;99.90
22145;DHT22;11238;48.730;11.566;2024-02-26T07:36:09;3.80;99.90
22145;DHT22;11238;48.730;11.566;2024-02-26T07:38:35;3.80;99.90
22145;DHT22;11238;48.730;11.566;2024-02-26T07:41:05;3.80;99.90
22145;DHT22;11238;48.730;11.566;2024-02-26T07:43:31;3.90;99.90
22145;DHT22;11238;48.730;11.566;2024-02-26T07:45:57;3.90;99.90
22145;DHT22;11238;48.730;11.566;2024-02-26T07:48:23;4.00;99.90
22145;DHT22;11238;48.730;11.566;2024-02-26T07:50:50;4.10;99.90
22145;DHT22;11238;48.730;11.566;2024-02-26T07:53:16;4.10;99.90
22145;DHT22;11238;48.730;11.566;2024-02-26T07:55:42;4.20;99.90
22145;DHT22;11238;48.730;11.566;2024-02-26T07:58:07;4.20;99.90
22145;DHT22;11238;48.730;11.566;2024-02-26T08:00:33;4.30;99.90
22145;DHT22;11238;48.730;11.566;2024-02-26T08:02:59;4.40;99.90
22145;DHT22;11238;48.730;11.566;2024-02-26T08:05:24;4.40;99.90
22145;DHT22;11238;48.730;11.566;2024-02-26T08:07:51;4.50;99.90
22145;DHT22;11238;48.730;11.566;2024-02-26T08:10:16;4.60;99.90
22145;DHT22;11238;48.730;11.566;2024-02-26T08:12:42;4.60;99.90
22145;DHT22;11238;48.730;11.566;2024-02-26T08:15:09;4.70;99.90
22145;DHT22;11238;48.730;11.566;2024-02-26T08:17:37;4.80;99.90
22145;DHT22;11238;48.730;11.566;2024-02-26T08:20:04;4.80;99.90
22145;DHT22;11238;48.730;11.566;2024-02-26T08:22:30;4.90;99.90
22145;DHT22;11238;48.730;11.566;2024-02-26T08:24:56;5.00;99.90
22145;DHT22;11238;48.730;11.566;2024-02-26T08:27:22;4.90;99.90
22145;DHT22;11238;48.730;11.566;2024-02-26T08:29:48;5.00;99.90
22145;DHT22;11238;48.730;11.566;2024-02-26T08:32:14;5.00;99.90
22145;DHT22;11238;48.730;11.566;2024-02-26T08:34:39;5.00;99.90
22145;DHT22;11238;48.730;11.566;2024-02-26T08:37:06;5.00;99.90
22145;DHT22;11238;48.730;11.566;2024-02-26T08:39:32;5.00;99.90
22145;DHT22;11238;48.730;11.566;2024-02-26T08:41:58;5.10;99.90
22145;DHT22;11238;48.730;11.566;2024-02-26T08:44:24;5.00;99.90
22145;DHT22;11238;48.730;11.566;2024-02-26T08:50:42;5.00;99.90
22145;DHT22;11238;48.730;11.566;2024-02-26T09:17:56;5.80;99.90
22145;DHT22;11238;48.730;11.566;2024-02-26T09:25:30;6.10;99.90
22145;DHT22;11238;48.730;11.566;2024-02-26T09:29:22;6.10;99.90
22145;DHT22;11238;48.730;11.566;2024-02-26T09:39:11;6.50;99.90
22145;DHT22;11238;48.730;11.566;2024-02-26T09:42:29;6.60;99.90
22145;DHT22;11238;48.730;11.566;2024-02-26T09:57:17;6.90;99.90
22145;DHT22;11238;48.730;11.566;2024-02-26T10:03:58;6.90;99.90
22145;DHT22;11238;48.730;11.566;2024-02-26T10:11:22;6.90;99.90
22145;DHT22;11238;48.730;11.566;2024-02-26T10:17:25;7.00;99.90
22145;DHT22;11238;48.730;11.566;2024-02-26T10:24:37;7.10;99.90
22145;DHT22;11238;48.730;11.566;2024-02-26T10:46:42;7.90;99.90
22145;DHT22;11238;48.730;11.566;2024-02-26T10:49:53;8.00;99.90
22145;DHT22;11238;48.730;11.566;2024-02-26T11:00:23;8.00;99.90
22145;DHT22;11238;48.730;11.566;2024-02-26T11:03:54;8.00;99.90
22145;DHT22;11238;48.730;11.566;2024-02-26T11:10:59;8.20;99.90
22145;DHT22;11238;48.730;11.566;2024-02-26T11:16:56;8.50;99.90
22145;DHT22;11238;48.730;11.566;2024-02-26T11:19:24;8.70;99.90
22145;DHT22;11238;48.730;11.566;2024-02-26T11:21:51;8.80;99.90
22145;DHT22;11238;48.730;11.566;2024-02-26T11:24:17;8.90;99.90
22145;DHT22;11238;48.730;11.566;2024-02-26T11:26:52;9.00;99.90
22145;DHT22;11238;48.730;11.566;2024-02-26T11:29:32;9.00;99.90
22145;DHT22;11238;48.730;11.566;2024-02-26T11:32:00;9.20;99.90
22145;DHT22;11238;48.730;11.566;2024-02-26T11:34:26;9.30;99.90
22145;DHT22;11238;48.730;11.566;2024-02-26T11:36:52;9.40;99.90
22145;DHT22;11238;48.730;11.566;2024-02-26T11:39:18;9.50;99.90
22145;DHT22;11238;48.730;11.566;2024-02-26T11:41:45;9.70;99.90
22145;DHT22;11238;48.730;11.566;2024-02-26T11:44:12;9.90;99.90
22145;DHT22;11238;48.730;11.566;2024-02-26T11:46:42;10.00;99.90
22145;DHT22;11238;48.730;11.566;2024-02-26T11:51:54;10.40;99.90
22145;DHT22;11238;48.730;11.566;2024-02-26T11:54:43;10.50;99.90
22145;DHT22;11238;48.730;11.566;2024-02-26T11:57:25;10.70;99.90
22145;DHT22;11238;48.730;11.566;2024-02-26T12:00:14;11.00;99.90
22145;DHT22;11238;48.730;11.566;2024-02-26T12:05:21;11.50;99.90
22145;DHT22;11238;48.730;11.566;2024-02-26T12:08:03;11.70;99.90
22145;DHT22;11238;48.730;11.566;2024-02-26T12:10:34;12.00;99.90
22145;DHT22;11238;48.730;11.566;2024-02-26T12:13:15;12.20;99.20
22145;DHT22;11238;48.730;11.566;2024-02-26T12:15:54;12.30;99.60
22145;DHT22;11238;48.730;11.566;2024-02-26T12:18:21;12.50;99.70
22145;DHT22;11238;48.730;11.566;2024-02-26T12:21:03;12.80;98.60
22145;DHT22;11238;48.730;11.566;2024-02-26T12:23:29;12.90;97.20
22145;DHT22;11238;48.730;11.566;2024-02-26T12:26:24;13.00;96.30
22145;DHT22;11238;48.730;11.566;2024-02-26T12:28:51;12.90;96.30
22145;DHT22;11238;48.730;11.566;2024-02-26T12:31:18;13.10;96.60
22145;DHT22;11238;48.730;11.566;2024-02-26T12:33:46;13.30;95.80
22145;DHT22;11238;48.730;11.566;2024-02-26T12:36:13;13.50;95.40
22145;DHT22;11238;48.730;11.566;2024-02-26T12:38:39;13.70;94.70
22145;DHT22;11238;48.730;11.566;2024-02-26T12:41:08;13.70;94.40
22145;DHT22;11238;48.730;11.566;2024-02-26T12:43:56;14.00;92.80
22145;DHT22;11238;48.730;11.566;2024-02-26T12:46:36;14.10;93.60
22145;DHT22;11238;48.730;11.566;2024-02-26T12:49:07;14.10;92.90
22145;DHT22;11238;48.730;11.566;2024-02-26T12:51:33;13.90;92.30
22145;DHT22;11238;48.730;11.566;2024-02-26T12:53:59;13.70;92.70
22145;DHT22;11238;48.730;11.566;2024-02-26T12:56:26;13.60;92.70
22145;DHT22;11238;48.730;11.566;2024-02-26T12:58:53;13.50;93.00
22145;DHT22;11238;48.730;11.566;2024-02-26T13:01:22;13.50;92.90
22145;DHT22;11238;48.730;11.566;2024-02-26T13:03:49;13.40;92.90
22145;DHT22;11238;48.730;11.566;2024-02-26T13:06:16;13.20;93.00
22145;DHT22;11238;48.730;11.566;2024-02-26T13:08:42;13.20;93.20
22145;DHT22;11238;48.730;11.566;2024-02-26T13:11:08;13.00;93.30
22145;DHT22;11238;48.730;11.566;2024-02-26T13:13:35;13.00;93.00
22145;DHT22;11238;48.730;11.566;2024-02-26T13:16:05;13.00;93.10
22145;DHT22;11238;48.730;11.566;2024-02-26T13:18:34;13.10;93.60
22145;DHT22;11238;48.730;11.566;2024-02-26T13:21:11;13.00;93.30
22145;DHT22;11238;48.730;11.566;2024-02-26T13:23:40;12.90;93.00
22145;DHT22;11238;48.730;11.566;2024-02-26T13:26:06;12.90;93.10
22145;DHT22;11238;48.730;11.566;2024-02-26T13:28:34;12.80;93.50
22145;DHT22;11238;48.730;11.566;2024-02-26T13:31:00;12.80;93.70
22145;DHT22;11238;48.730;11.566;2024-02-26T13:33:28;12.70;93.50
22145;DHT22;11238;48.730;11.566;2024-02-26T13:35:55;12.60;93.70
22145;DHT22;11238;48.730;11.566;2024-02-26T13:38:23;12.60;94.20
22145;DHT22;11238;48.730;11.566;2024-02-26T13:40:50;12.70;94.20
22145;DHT22;11238;48.730;11.566;2024-02-26T13:43:16;12.70;94.20
22145;DHT22;11238;48.730;11.566;2024-02-26T13:45:42;12.70;93.60
22145;DHT22;11238;48.730;11.566;2024-02-26T13:48:10;12.70;94.10
22145;DHT22;11238;48.730;11.566;2024-02-26T13:50:40;12.70;93.60
22145;DHT22;11238;48.730;11.566;2024-02-26T13:53:07;12.60;93.60
22145;DHT22;11238;48.730;11.566;2024-02-26T13:55:32;12.60;93.70
22145;DHT22;11238;48.730;11.566;2024-02-26T13:57:59;12.60;93.30
22145;DHT22;11238;48.730;11.566;2024-02-26T14:00:29;12.50;93.00
22145;DHT22;11238;48.730;11.566;2024-02-26T14:02:58;12.50;93.40
22145;DHT22;11238;48.730;11.566;2024-02-26T14:05:24;12.40;93.80
22145;DHT22;11238;48.730;11.566;2024-02-26T14:07:50;12.40;93.80
22145;DHT22;11238;48.730;11.566;2024-02-26T14:10:15;12.40;93.90
22145;DHT22;11238;48.730;11.566;2024-02-26T14:12:41;12.40;94.50
22145;DHT22;11238;48.730;11.566;2024-02-26T14:15:08;12.40;94.30
22145;DHT22;11238;48.730;11.566;2024-02-26T14:17:35;12.30;94.20
22145;DHT22;11238;48.730;11.566;2024-02-26T14:20:02;12.30;94.60
22145;DHT22;11238;48.730;11.566;2024-02-26T14:22:28;12.30;94.20
22145;DHT22;11238;48.730;11.566;2024-02-26T14:24:56;12.30;94.10
22145;DHT22;11238;48.730;11.566;2024-02-26T14:27:22;12.20;94.00
22145;DHT22;11238;48.730;11.566;2024-02-26T14:29:48;12.10;93.80
22145;DHT22;11238;48.730;11.566;2024-02-26T14:32:14;12.10;93.90
22145;DHT22;11238;48.730;11.566;2024-02-26T14:34:41;12.10;93.90
22145;DHT22;11238;48.730;11.566;2024-02-26T14:37:07;12.00;94.10
22145;DHT22;11238;48.730;11.566;2024-02-26T14:39:32;11.90;94.10
22145;DHT22;11238;48.730;11.566;2024-02-26T14:41:59;12.00;94.40
22145;DHT22;11238;48.730;11.566;2024-02-26T14:44:25;12.00;94.80
22145;DHT22;11238;48.730;11.566;2024-02-26T14:46:51;11.90;94.70
22145;DHT22;11238;48.730;11.566;2024-02-26T14:49:17;12.00;94.80
22145;DHT22;11238;48.730;11.566;2024-02-26T14:51:43;12.10;94.60
22145;DHT22;11238;48.730;11.566;2024-02-26T14:54:12;12.00;94.60
22145;DHT22;11238;48.730;11.566;2024-02-26T14:56:38;12.00;94.80
22145;DHT22;11238;48.730;11.566;2024-02-26T14:59:04;12.00;94.50
22145;DHT22;11238;48.730;11.566;2024-02-26T15:01:30;11.90;94.50
22145;DHT22;11238;48.730;11.566;2024-02-26T15:03:56;11.90;94.10
22145;DHT22;11238;48.730;11.566;2024-02-26T15:06:23;11.80;94.60
22145;DHT22;11238;48.730;11.566;2024-02-26T15:08:49;11.80;95.00
22145;DHT22;11238;48.730;11.566;2024-02-26T15:11:15;11.80;94.90
22145;DHT22;11238;48.730;11.566;2024-02-26T15:13:41;11.80;94.80
22145;DHT22;11238;48.730;11.566;2024-02-26T15:16:07;11.80;94.70
22145;DHT22;11238;48.730;11.566;2024-02-26T15:18:33;11.70;94.60
22145;DHT22;11238;48.730;11.566;2024-02-26T15:20:58;11.70;94.90
22145;DHT22;11238;48.730;11.566;2024-02-26T15:23:24;11.70;95.00
22145;DHT22;11238;48.730;11.566;2024-02-26T15:25:50;11.60;94.50
22145;DHT22;11238;48.730;11.566;2024-02-26T15:28:16;11.70;94.50
22145;DHT22;11238;48.730;11.566;2024-02-26T15:30:42;11.60;94.60
22145;DHT22;11238;48.730;11.566;2024-02-26T15:33:08;11.50;94.60
22145;DHT22;11238;48.730;11.566;2024-02-26T15:35:34;11.50;94.60
22145;DHT22;11238;48.730;11.566;2024-02-26T15:38:00;11.40;94.50
22145;DHT22;11238;48.730;11.566;2024-02-26T15:40:26;11.40;94.50
22145;DHT22;11238;48.730;11.566;2024-02-26T15:42:52;11.30;94.60
22145;DHT22;11238;48.730;11.566;2024-02-26T15:45:18;11.30;94.50
22145;DHT22;11238;48.730;11.566;2024-02-26T15:47:44;11.20;94.60
22145;DHT22;11238;48.730;11.566;2024-02-26T15:50:11;11.20;94.80
22145;DHT22;11238;48.730;11.566;2024-02-26T15:52:37;11.10;95.10
22145;DHT22;11238;48.730;11.566;2024-02-26T15:55:05;11.10;95.30
22145;DHT22;11238;48.730;11.566;2024-02-26T15:57:31;11.00;95.20
22145;DHT22;11238;48.730;11.566;2024-02-26T15:59:57;11.00;95.20
22145;DHT22;11238;48.730;11.566;2024-02-26T16:02:27;11.00;95.20
22145;DHT22;11238;48.730;11.566;2024-02-26T16:04:52;10.90;95.20
22145;DHT22;11238;48.730;11.566;2024-02-26T16:07:30;10.90;95.20
22145;DHT22;11238;48.730;11.566;2024-02-26T16:09:57;10.90;95.30
22145;DHT22;11238;48.730;11.566;2024-02-26T16:12:41;10.80;95.10
22145;DHT22;11238;48.730;11.566;2024-02-26T16:15:09;10.80;95.10
22145;DHT22;11238;48.730;11.566;2024-02-26T16:17:39;10.70;94.80
22145;DHT22;11238;48.730;11.566;2024-02-26T16:20:13;10.70;94.70
22145;DHT22;11238;48.730;11.566;2024-02-26T16:22:40;10.70;95.20
22145;DHT22;11238;48.730;11.566;2024-02-26T16:25:09;10.60;95.00
22145;DHT22;11238;48.730;11.566;2024-02-26T16:27:34;10.60;95.10
22145;DHT22;11238;48.730;11.566;2024-02-26T16:30:07;10.60;95.10
22145;DHT22;11238;48.730;11.566;2024-02-26T16:32:36;10.50;95.10
22145;DHT22;11238;48.730;11.566;2024-02-26T16:35:03;10.50;95.20
22145;DHT22;11238;48.730;11.566;2024-02-26T16:37:30;10.50;95.20
22145;DHT22;11238;48.730;11.566;2024-02-26T16:40:01;10.50;95.40
22145;DHT22;11238;48.730;11.566;2024-02-26T16:42:27;10.40;95.40
22145;DHT22;11238;48.730;11.566;2024-02-26T16:44:53;10.40;95.30
22145;DHT22;11238;48.730;11.566;2024-02-26T16:47:21;10.40;95.20
22145;DHT22;11238;48.730;11.566;2024-02-26T16:49:47;10.30;95.20
22145;DHT22;11238;48.730;11.566;2024-02-26T16:52:13;10.20;95.30
22145;DHT22;11238;48.730;11.566;2024-02-26T16:54:38;10.20;95.50
22145;DHT22;11238;48.730;11.566;2024-02-26T16:57:05;10.10;95.50
22145;DHT22;11238;48.730;11.566;2024-02-26T16:59:31;10.00;95.50
22145;DHT22;11238;48.730;11.566;2024-02-26T17:01:57;10.00;95.50
22145;DHT22;11238;48.730;11.566;2024-02-26T17:04:25;10.00;95.80
22145;DHT22;11238;48.730;11.566;2024-02-26T17:06:51;10.00;95.60
22145;DHT22;11238;48.730;11.566;2024-02-26T17:09:20;9.90;95.40
22145;DHT22;11238;48.730;11.566;2024-02-26T17:11:47;9.90;94.80
22145;DHT22;11238;48.730;11.566;2024-02-26T17:14:13;9.90;94.70
22145;DHT22;11238;48.730;11.566;2024-02-26T17:16:40;9.80;94.60
22145;DHT22;11238;48.730;11.566;2024-02-26T17:19:06;9.80;95.10
22145;DHT22;11238;48.730;11.566;2024-02-26T17:21:32;9.80;95.00